sensor_id;sensor_type;location;lat;lon;timestamp;temperature;humidity
774;DHT22;370;48.810;9.150;2024-02-26T00:03:29;8.60;1.00
774;DHT22;370;48.810;9.150;2024-02-26T00:06:12;8.50;1.00
774;DHT22;370;48.810;9.150;2024-02-26T00:09:20;8.50;1.00
774;DHT22;370;48.810;9.150;2024-02-26T00:12:08;8.60;1.00
774;DHT22;370;48.810;9.150;2024-02-26T00:15:10;8.60;1.00
774;DHT22;370;48.810;9.150;2024-02-26T00:17:56;8.60;1.00
774;DHT22;370;48.810;9.150;2024-02-26T00:20:32;8.50;1.00
774;DHT22;370;48.810;9.150;2024-02-26T00:23:11;8.60;1.00
774;DHT22;370;48.810;9.150;2024-02-26T00:25:40;8.60;1.00
774;DHT22;370;48.810;9.150;2024-02-26T00:28:14;8.70;1.00
774;DHT22;370;48.810;9.150;2024-02-26T00:30:46;8.60;1.00
774;DHT22;370;48.810;9.150;2024-02-26T00:33:28;8.60;1.00
774;DHT22;370;48.810;9.150;2024-02-26T00:35:55;8.60;1.00
774;DHT22;370;48.810;9.150;2024-02-26T00:38:22;8.70;1.00
774;DHT22;370;48.810;9.150;2024-02-26T00:40:54;8.70;1.00
774;DHT22;370;48.810;9.150;2024-02-26T00:43:23;8.70;1.00
774;DHT22;370;48.810;9.150;2024-02-26T00:45:50;8.80;1.00
774;DHT22;370;48.810;9.150;2024-02-26T00:48:18;8.80;1.00
774;DHT22;370;48.810;9.150;2024-02-26T00:50:45;8.80;1.00
774;DHT22;370;48.810;9.150;2024-02-26T00:53:11;8.80;1.00
774;DHT22;370;48.810;9.150;2024-02-26T00:55:38;8.80;1.00
774;DHT22;370;48.810;9.150;2024-02-26T00:58:05;8.80;1.00
774;DHT22;370;48.810;9.150;2024-02-26T01:00:33;8.70;1.00
774;DHT22;370;48.810;9.150;2024-02-26T01:03:00;8.80;1.00
774;DHT22;370;48.810;9.150;2024-02-26T01:05:26;8.80;1.00
774;DHT22;370;48.810;9.150;2024-02-26T01:07:53;8.70;1.00
774;DHT22;370;48.810;9.150;2024-02-26T01:10:20;8.70;1.00
774;DHT22;370;48.810;9.150;2024-02-26T01:12:47;8.80;1.00
774;DHT22;370;48.810;9.150;2024-02-26T01:15:14;8.80;1.00
774;DHT22;370;48.810;9.150;2024-02-26T01:17:42;8.80;1.00
774;DHT22;370;48.810;9.150;2024-02-26T01:20:09;8.80;1.00
774;DHT22;370;48.810;9.150;2024-02-26T01:22:36;8.70;1.00
774;DHT22;370;48.810;9.150;2024-02-26T01:25:04;8.60;1.00
774;DHT22;370;48.810;9.150;2024-02-26T01:27:31;8.60;1.00
774;DHT22;370;48.810;9.150;2024-02-26T01:29:58;8.50;1.00
774;DHT22;370;48.810;9.150;2024-02-26T01:32:24;8.50;1.00
774;DHT22;370;48.810;9.150;2024-02-26T01:34:53;8.60;1.00
774;DHT22;370;48.810;9.150;2024-02-26T01:37:19;8.40;1.00
774;DHT22;370;48.810;9.150;2024-02-26T01:39:46;8.20;1.00
774;DHT22;370;48.810;9.150;2024-02-26T01:42:13;8.30;1.00
774;DHT22;370;48.810;9.150;2024-02-26T01:44:40;8.20;1.00
774;DHT22;370;48.810;9.150;2024-02-26T01:47:11;8.20;1.00
774;DHT22;370;48.810;9.150;2024-02-26T01:49:38;8.20;1.00
774;DHT22;370;48.810;9.150;2024-02-26T01:52:09;8.30;1.00
774;DHT22;370;48.810;9.150;2024-02-26T01:54:37;8.20;1.00
774;DHT22;370;48.810;9.150;2024-02-26T01:57:05;8.30;1.00
774;DHT22;370;48.810;9.150;2024-02-26T01:59:33;8.30;1.00
774;DHT22;370;48.810;9.150;2024-02-26T02:02:01;8.30;1.00
774;DHT22;370;48.810;9.150;2024-02-26T02:04:30;8.30;1.00
774;DHT22;370;48.810;9.150;2024-02-26T02:06:58;8.30;1.00
774;DHT22;370;48.810;9.150;2024-02-26T02:09:27;8.30;1.00
774;DHT22;370;48.810;9.150;2024-02-26T02:11:54;8.40;1.00
774;DHT22;370;48.810;9.150;2024-02-26T02:14:22;8.40;1.00
774;DHT22;370;48.810;9.150;2024-02-26T02:16:49;8.30;1.00
774;DHT22;370;48.810;9.150;2024-02-26T02:19:15;8.20;1.00
774;DHT22;370;48.810;9.150;2024-02-26T02:21:43;8.20;1.00
774;DHT22;370;48.810;9.150;2024-02-26T02:24:10;8.10;1.00
774;DHT22;370;48.810;9.150;2024-02-26T02:26:37;8.20;1.00
774;DHT22;370;48.810;9.150;2024-02-26T02:29:04;8.20;1.00
774;DHT22;370;48.810;9.150;2024-02-26T02:31:32;8.30;1.00
774;DHT22;370;48.810;9.150;2024-02-26T02:33:59;8.20;1.00
774;DHT22;370;48.810;9.150;2024-02-26T02:36:27;8.30;1.00
774;DHT22;370;48.810;9.150;2024-02-26T02:38:55;8.40;1.00
774;DHT22;370;48.810;9.150;2024-02-26T02:41:21;8.30;1.00
774;DHT22;370;48.810;9.150;2024-02-26T02:43:48;8.40;1.00
774;DHT22;370;48.810;9.150;2024-02-26T02:46:15;8.40;1.00
774;DHT22;370;48.810;9.150;2024-02-26T02:48:42;8.40;1.00
774;DHT22;370;48.810;9.150;2024-02-26T02:51:09;8.30;1.00
774;DHT22;370;48.810;9.150;2024-02-26T02:53:36;8.30;1.00
774;DHT22;370;48.810;9.150;2024-02-26T02:56:05;8.40;1.00
774;DHT22;370;48.810;9.150;2024-02-26T02:58:31;8.40;1.00
774;DHT22;370;48.810;9.150;2024-02-26T03:00:58;8.40;1.00
774;DHT22;370;48.810;9.150;2024-02-26T03:03:26;8.40;1.00
774;DHT22;370;48.810;9.150;2024-02-26T03:05:54;8.40;1.00
774;DHT22;370;48.810;9.150;2024-02-26T03:08:21;8.50;1.00
774;DHT22;370;48.810;9.150;2024-02-26T03:10:49;8.50;1.00
774;DHT22;370;48.810;9.150;2024-02-26T03:13:17;8.60;1.00
774;DHT22;370;48.810;9.150;2024-02-26T03:15:44;8.60;1.00
774;DHT22;370;48.810;9.150;2024-02-26T03:18:10;8.60;1.00
774;DHT22;370;48.810;9.150;2024-02-26T03:20:38;8.60;1.00
774;DHT22;370;48.810;9.150;2024-02-26T03:23:05;8.60;1.00
774;DHT22;370;48.810;9.150;2024-02-26T03:25:31;8.50;1.00
774;DHT22;370;48.810;9.150;2024-02-26T03:27:58;8.50;1.00
774;DHT22;370;48.810;9.150;2024-02-26T03:30:26;8.50;1.00
774;DHT22;370;48.810;9.150;2024-02-26T03:32:53;8.40;1.00
774;DHT22;370;48.810;9.150;2024-02-26T03:35:20;8.50;1.00
774;DHT22;370;48.810;9.150;2024-02-26T03:37:46;8.60;1.00
774;DHT22;370;48.810;9.150;2024-02-26T03:40:16;8.60;1.00
774;DHT22;370;48.810;9.150;2024-02-26T03:42:44;8.60;1.00
774;DHT22;370;48.810;9.150;2024-02-26T03:45:11;8.50;1.00
774;DHT22;370;48.810;9.150;2024-02-26T03:47:39;8.50;1.00
774;DHT22;370;48.810;9.150;2024-02-26T03:50:07;8.50;1.00
774;DHT22;370;48.810;9.150;2024-02-26T03:52:34;8.60;1.00
774;DHT22;370;48.810;9.150;2024-02-26T03:55:00;8.60;1.00
774;DHT22;370;48.810;9.150;2024-02-26T03:57:26;8.50;1.00
774;DHT22;370;48.810;9.150;2024-02-26T03:59:53;8.50;1.00
774;DHT22;370;48.810;9.150;2024-02-26T04:02:20;8.50;1.00
774;DHT22;370;48.810;9.150;2024-02-26T04:04:50;8.40;1.00
774;DHT22;370;48.810;9.150;2024-02-26T04:07:17;8.20;1.00
774;DHT22;370;48.810;9.150;2024-02-26T04:09:44;8.20;1.00
774;DHT22;370;48.810;9.150;2024-02-26T04:12:11;8.10;1.00
774;DHT22;370;48.810;9.150;2024-02-26T04:14:37;8.20;1.00
774;DHT22;370;48.810;9.150;2024-02-26T04:17:04;8.10;1.00
774;DHT22;370;48.810;9.150;2024-02-26T04:19:31;8.20;1.00
774;DHT22;370;48.810;9.150;2024-02-26T04:21:59;8.20;1.00
774;DHT22;370;48.810;9.150;2024-02-26T04:24:26;8.10;1.00
774;DHT22;370;48.810;9.150;2024-02-26T04:26:53;8.20;1.00
774;DHT22;370;48.810;9.150;2024-02-26T04:29:19;8.30;1.00
774;DHT22;370;48.810;9.150;2024-02-26T04:31:46;8.30;1.00
774;DHT22;370;48.810;9.150;2024-02-26T04:34:13;8.30;1.00
774;DHT22;370;48.810;9.150;2024-02-26T04:36:40;8.40;1.00
774;DHT22;370;48.810;9.150;2024-02-26T04:39:09;8.30;1.00
774;DHT22;370;48.810;9.150;2024-02-26T04:41:36;8.20;1.00
774;DHT22;370;48.810;9.150;2024-02-26T04:44:03;8.30;1.00
774;DHT22;370;48.810;9.150;2024-02-26T04:46:30;8.30;1.00
774;DHT22;370;48.810;9.150;2024-02-26T04:48:57;8.40;1.00
774;DHT22;370;48.810;9.150;2024-02-26T04:51:24;8.50;1.00
774;DHT22;370;48.810;9.150;2024-02-26T04:53:50;8.50;1.00
774;DHT22;370;48.810;9.150;2024-02-26T04:56:20;8.50;1.00
774;DHT22;370;48.810;9.150;2024-02-26T04:58:47;8.50;1.00
774;DHT22;370;48.810;9.150;2024-02-26T05:01:14;8.50;1.00
774;DHT22;370;48.810;9.150;2024-02-26T05:03:42;8.50;1.00
774;DHT22;370;48.810;9.150;2024-02-26T05:06:09;8.50;1.00
774;DHT22;370;48.810;9.150;2024-02-26T05:08:36;8.50;1.00
774;DHT22;370;48.810;9.150;2024-02-26T05:11:04;8.50;1.00
774;DHT22;370;48.810;9.150;2024-02-26T05:13:33;8.50;1.00
774;DHT22;370;48.810;9.150;2024-02-26T05:15:59;8.50;1.00
774;DHT22;370;48.810;9.150;2024-02-26T05:18:27;8.40;1.00
774;DHT22;370;48.810;9.150;2024-02-26T05:20:54;8.40;1.00
774;DHT22;370;48.810;9.150;2024-02-26T05:23:21;8.50;1.00
774;DHT22;370;48.810;9.150;2024-02-26T05:25:48;8.50;1.00
774;DHT22;370;48.810;9.150;2024-02-26T05:28:15;8.50;1.00
774;DHT22;370;48.810;9.150;2024-02-26T05:30:43;8.40;1.00
774;DHT22;370;48.810;9.150;2024-02-26T05:33:10;8.40;1.00
774;DHT22;370;48.810;9.150;2024-02-26T05:35:37;8.40;1.00
774;DHT22;370;48.810;9.150;2024-02-26T05:38:04;8.30;1.00
774;DHT22;370;48.810;9.150;2024-02-26T05:40:31;8.40;1.00
774;DHT22;370;48.810;9.150;2024-02-26T05:42:57;8.50;1.00
774;DHT22;370;48.810;9.150;2024-02-26T05:45:24;8.60;1.00
774;DHT22;370;48.810;9.150;2024-02-26T05:47:52;8.60;1.00
774;DHT22;370;48.810;9.150;2024-02-26T05:50:19;8.50;1.00
774;DHT22;370;48.810;9.150;2024-02-26T05:52:46;8.50;1.00
774;DHT22;370;48.810;9.150;2024-02-26T05:55:12;8.40;1.00
774;DHT22;370;48.810;9.150;2024-02-26T05:57:40;8.30;1.00
774;DHT22;370;48.810;9.150;2024-02-26T06:00:08;8.30;1.00
774;DHT22;370;48.810;9.150;2024-02-26T06:02:35;8.20;1.00
774;DHT22;370;48.810;9.150;2024-02-26T06:05:04;8.10;1.00
774;DHT22;370;48.810;9.150;2024-02-26T06:07:32;8.10;1.00
774;DHT22;370;48.810;9.150;2024-02-26T06:10:00;8.10;1.00
774;DHT22;370;48.810;9.150;2024-02-26T06:12:27;8.10;1.00
774;DHT22;370;48.810;9.150;2024-02-26T06:14:56;8.00;1.00
774;DHT22;370;48.810;9.150;2024-02-26T06:17:23;7.90;1.00
774;DHT22;370;48.810;9.150;2024-02-26T06:19:50;7.80;1.00
774;DHT22;370;48.810;9.150;2024-02-26T06:22:18;7.80;1.00
774;DHT22;370;48.810;9.150;2024-02-26T06:24:45;7.70;1.00
774;DHT22;370;48.810;9.150;2024-02-26T06:27:12;7.70;1.00
774;DHT22;370;48.810;9.150;2024-02-26T06:29:39;7.70;1.00
774;DHT22;370;48.810;9.150;2024-02-26T06:32:06;7.70;1.00
774;DHT22;370;48.810;9.150;2024-02-26T06:34:33;7.80;1.00
774;DHT22;370;48.810;9.150;2024-02-26T06:36:59;7.80;1.00
774;DHT22;370;48.810;9.150;2024-02-26T06:39:27;7.70;1.00
774;DHT22;370;48.810;9.150;2024-02-26T06:41:54;7.50;1.00
774;DHT22;370;48.810;9.150;2024-02-26T06:44:25;7.50;1.00
774;DHT22;370;48.810;9.150;2024-02-26T06:46:57;7.40;1.00
774;DHT22;370;48.810;9.150;2024-02-26T06:49:24;7.40;1.00
774;DHT22;370;48.810;9.150;2024-02-26T06:51:50;7.40;1.00
774;DHT22;370;48.810;9.150;2024-02-26T06:54:17;7.40;1.00
774;DHT22;370;48.810;9.150;2024-02-26T06:56:45;7.60;1.00
774;DHT22;370;48.810;9.150;2024-02-26T06:59:12;7.70;1.00
774;DHT22;370;48.810;9.150;2024-02-26T07:01:40;7.80;1.00
774;DHT22;370;48.810;9.150;2024-02-26T07:04:07;7.90;1.00
774;DHT22;370;48.810;9.150;2024-02-26T07:06:36;8.00;1.00
774;DHT22;370;48.810;9.150;2024-02-26T07:09:02;8.10;1.00
774;DHT22;370;48.810;9.150;2024-02-26T07:11:29;8.20;1.00
774;DHT22;370;48.810;9.150;2024-02-26T07:13:57;8.20;1.00
774;DHT22;370;48.810;9.150;2024-02-26T07:16:24;8.40;1.00
774;DHT22;370;48.810;9.150;2024-02-26T07:18:52;8.50;1.00
774;DHT22;370;48.810;9.150;2024-02-26T07:21:19;8.50;1.00
774;DHT22;370;48.810;9.150;2024-02-26T07:23:45;8.60;1.00
774;DHT22;370;48.810;9.150;2024-02-26T07:26:12;8.60;1.00
774;DHT22;370;48.810;9.150;2024-02-26T07:28:39;8.70;1.00
774;DHT22;370;48.810;9.150;2024-02-26T07:31:07;8.80;1.00
774;DHT22;370;48.810;9.150;2024-02-26T07:33:34;8.80;1.00
774;DHT22;370;48.810;9.150;2024-02-26T07:36:00;8.90;1.00
774;DHT22;370;48.810;9.150;2024-02-26T07:38:27;9.10;1.00
774;DHT22;370;48.810;9.150;2024-02-26T07:40:54;9.20;1.00
774;DHT22;370;48.810;9.150;2024-02-26T07:43:22;9.30;1.00
774;DHT22;370;48.810;9.150;2024-02-26T07:45:49;9.40;1.00
774;DHT22;370;48.810;9.150;2024-02-26T07:48:17;9.50;1.00
774;DHT22;370;48.810;9.150;2024-02-26T07:50:44;9.50;1.00
774;DHT22;370;48.810;9.150;2024-02-26T07:53:11;9.60;1.00
774;DHT22;370;48.810;9.150;2024-02-26T07:55:37;9.90;1.00
774;DHT22;370;48.810;9.150;2024-02-26T07:58:04;9.90;1.00
774;DHT22;370;48.810;9.150;2024-02-26T08:00:31;9.90;1.00
774;DHT22;370;48.810;9.150;2024-02-26T08:02:58;10.00;1.00
774;DHT22;370;48.810;9.150;2024-02-26T08:05:26;10.20;1.00
774;DHT22;370;48.810;9.150;2024-02-26T08:07:53;10.30;1.00
774;DHT22;370;48.810;9.150;2024-02-26T08:10:22;10.30;1.00
774;DHT22;370;48.810;9.150;2024-02-26T08:12:49;10.20;1.00
774;DHT22;370;48.810;9.150;2024-02-26T08:15:16;10.30;1.00
774;DHT22;370;48.810;9.150;2024-02-26T08:17:44;10.50;1.00
774;DHT22;370;48.810;9.150;2024-02-26T08:20:13;10.50;1.00
774;DHT22;370;48.810;9.150;2024-02-26T08:22:41;10.70;1.00
774;DHT22;370;48.810;9.150;2024-02-26T08:25:09;10.80;1.00
774;DHT22;370;48.810;9.150;2024-02-26T08:27:36;10.90;1.00
774;DHT22;370;48.810;9.150;2024-02-26T08:30:04;11.00;1.00
774;DHT22;370;48.810;9.150;2024-02-26T08:32:31;11.10;1.00
774;DHT22;370;48.810;9.150;2024-02-26T08:34:59;11.10;1.00
774;DHT22;370;48.810;9.150;2024-02-26T08:37:26;11.20;1.00
774;DHT22;370;48.810;9.150;2024-02-26T08:39:54;11.40;1.00
774;DHT22;370;48.810;9.150;2024-02-26T08:42:21;11.50;1.00
774;DHT22;370;48.810;9.150;2024-02-26T08:44:49;11.50;1.00
774;DHT22;370;48.810;9.150;2024-02-26T08:47:16;11.70;1.00
774;DHT22;370;48.810;9.150;2024-02-26T08:49:44;11.50;1.00
774;DHT22;370;48.810;9.150;2024-02-26T08:52:11;11.40;1.00
774;DHT22;370;48.810;9.150;2024-02-26T08:54:39;11.50;1.00
774;DHT22;370;48.810;9.150;2024-02-26T08:57:07;11.80;1.00
774;DHT22;370;48.810;9.150;2024-02-26T08:59:35;12.00;1.00
774;DHT22;370;48.810;9.150;2024-02-26T09:02:02;12.10;1.00
774;DHT22;370;48.810;9.150;2024-02-26T09:04:29;12.20;1.00
774;DHT22;370;48.810;9.150;2024-02-26T09:06:55;12.40;1.00
774;DHT22;370;48.810;9.150;2024-02-26T09:09:22;12.50;1.00
774;DHT22;370;48.810;9.150;2024-02-26T09:11:52;12.60;1.00
774;DHT22;370;48.810;9.150;2024-02-26T09:14:22;12.70;1.00
774;DHT22;370;48.810;9.150;2024-02-26T09:16:48;12.80;1.00
774;DHT22;370;48.810;9.150;2024-02-26T09:19:15;12.90;1.00
774;DHT22;370;48.810;9.150;2024-02-26T09:21:42;13.00;1.00
774;DHT22;370;48.810;9.150;2024-02-26T09:24:09;13.10;1.00
774;DHT22;370;48.810;9.150;2024-02-26T09:26:36;12.90;1.00
774;DHT22;370;48.810;9.150;2024-02-26T09:29:03;12.90;1.00
774;DHT22;370;48.810;9.150;2024-02-26T09:31:32;12.90;1.00
774;DHT22;370;48.810;9.150;2024-02-26T09:33:59;13.00;1.00
774;DHT22;370;48.810;9.150;2024-02-26T09:36:26;12.90;1.00
774;DHT22;370;48.810;9.150;2024-02-26T09:38:53;12.80;1.00
774;DHT22;370;48.810;9.150;2024-02-26T09:41:20;12.80;1.00
774;DHT22;370;48.810;9.150;2024-02-26T09:43:48;12.40;1.00
774;DHT22;370;48.810;9.150;2024-02-26T09:46:18;12.10;1.00
774;DHT22;370;48.810;9.150;2024-02-26T09:48:47;11.90;1.00
774;DHT22;370;48.810;9.150;2024-02-26T09:51:15;12.20;1.00
774;DHT22;370;48.810;9.150;2024-02-26T09:53:44;12.60;1.00
774;DHT22;370;48.810;9.150;2024-02-26T09:56:12;13.20;1.00
774;DHT22;370;48.810;9.150;2024-02-26T09:58:41;13.80;1.00
774;DHT22;370;48.810;9.150;2024-02-26T10:01:13;14.20;1.00
774;DHT22;370;48.810;9.150;2024-02-26T10:03:42;14.70;1.00
774;DHT22;370;48.810;9.150;2024-02-26T10:06:11;15.00;1.00
774;DHT22;370;48.810;9.150;2024-02-26T10:08:38;15.60;1.00
774;DHT22;370;48.810;9.150;2024-02-26T10:11:07;17.10;1.00
774;DHT22;370;48.810;9.150;2024-02-26T10:13:34;18.70;1.00
774;DHT22;370;48.810;9.150;2024-02-26T10:16:02;19.40;1.00
774;DHT22;370;48.810;9.150;2024-02-26T10:18:45;19.80;1.00
774;DHT22;370;48.810;9.150;2024-02-26T10:21:13;21.00;1.00
774;DHT22;370;48.810;9.150;2024-02-26T10:23:42;21.90;1.00
774;DHT22;370;48.810;9.150;2024-02-26T10:26:10;22.20;1.00
774;DHT22;370;48.810;9.150;2024-02-26T10:28:38;23.20;1.00
774;DHT22;370;48.810;9.150;2024-02-26T10:31:06;25.00;1.00
774;DHT22;370;48.810;9.150;2024-02-26T10:33:33;25.00;1.00
774;DHT22;370;48.810;9.150;2024-02-26T10:36:02;24.30;1.00
774;DHT22;370;48.810;9.150;2024-02-26T10:38:31;24.60;1.00
774;DHT22;370;48.810;9.150;2024-02-26T10:40:59;25.00;1.00
774;DHT22;370;48.810;9.150;2024-02-26T10:43:26;24.20;1.00
774;DHT22;370;48.810;9.150;2024-02-26T10:45:55;24.70;1.00
774;DHT22;370;48.810;9.150;2024-02-26T10:48:22;25.10;1.00
774;DHT22;370;48.810;9.150;2024-02-26T10:50:49;24.40;1.00
774;DHT22;370;48.810;9.150;2024-02-26T10:53:20;24.00;1.00
774;DHT22;370;48.810;9.150;2024-02-26T10:55:58;23.80;1.00
774;DHT22;370;48.810;9.150;2024-02-26T10:58:28;22.50;1.00
774;DHT22;370;48.810;9.150;2024-02-26T11:00:57;22.30;1.00
774;DHT22;370;48.810;9.150;2024-02-26T11:03:25;22.10;1.00
774;DHT22;370;48.810;9.150;2024-02-26T11:05:52;23.10;1.00
774;DHT22;370;48.810;9.150;2024-02-26T11:08:20;24.00;1.00
774;DHT22;370;48.810;9.150;2024-02-26T11:10:48;24.70;1.00
774;DHT22;370;48.810;9.150;2024-02-26T11:13:18;24.40;1.00
774;DHT22;370;48.810;9.150;2024-02-26T11:15:46;25.70;1.00
774;DHT22;370;48.810;9.150;2024-02-26T11:18:15;28.00;1.00
774;DHT22;370;48.810;9.150;2024-02-26T11:20:43;29.30;1.00
774;DHT22;370;48.810;9.150;2024-02-26T11:23:11;30.40;1.00
774;DHT22;370;48.810;9.150;2024-02-26T11:25:38;29.10;1.00
774;DHT22;370;48.810;9.150;2024-02-26T11:28:08;28.10;1.00
774;DHT22;370;48.810;9.150;2024-02-26T11:30:42;27.10;1.00
774;DHT22;370;48.810;9.150;2024-02-26T11:33:10;27.10;1.00
774;DHT22;370;48.810;9.150;2024-02-26T11:35:38;26.70;1.00
774;DHT22;370;48.810;9.150;2024-02-26T11:38:06;27.10;1.00
774;DHT22;370;48.810;9.150;2024-02-26T11:40:36;26.70;1.00
774;DHT22;370;48.810;9.150;2024-02-26T11:43:05;25.80;1.00
774;DHT22;370;48.810;9.150;2024-02-26T11:45:53;25.30;1.00
774;DHT22;370;48.810;9.150;2024-02-26T11:48:25;25.70;1.00
774;DHT22;370;48.810;9.150;2024-02-26T11:50:53;25.10;1.00
774;DHT22;370;48.810;9.150;2024-02-26T11:53:22;24.80;1.00
774;DHT22;370;48.810;9.150;2024-02-26T11:59:03;25.40;1.00
774;DHT22;370;48.810;9.150;2024-02-26T12:01:42;24.90;1.00
774;DHT22;370;48.810;9.150;2024-02-26T12:04:12;24.30;1.00
774;DHT22;370;48.810;9.150;2024-02-26T12:06:46;23.80;1.00
774;DHT22;370;48.810;9.150;2024-02-26T12:09:13;23.20;1.00
774;DHT22;370;48.810;9.150;2024-02-26T12:11:56;22.80;1.00
774;DHT22;370;48.810;9.150;2024-02-26T12:14:25;21.20;1.00
774;DHT22;370;48.810;9.150;2024-02-26T12:16:55;20.30;1.00
774;DHT22;370;48.810;9.150;2024-02-26T12:19:24;19.70;1.00
774;DHT22;370;48.810;9.150;2024-02-26T12:21:52;19.50;1.00
774;DHT22;370;48.810;9.150;2024-02-26T12:24:20;18.90;1.00
774;DHT22;370;48.810;9.150;2024-02-26T12:26:48;18.30;1.00
774;DHT22;370;48.810;9.150;2024-02-26T12:29:16;18.20;1.00
774;DHT22;370;48.810;9.150;2024-02-26T12:31:43;17.90;1.00
774;DHT22;370;48.810;9.150;2024-02-26T12:34:12;18.10;1.00
774;DHT22;370;48.810;9.150;2024-02-26T12:36:39;18.10;1.00
774;DHT22;370;48.810;9.150;2024-02-26T12:39:06;17.80;1.00
774;DHT22;370;48.810;9.150;2024-02-26T12:41:34;17.50;1.00
774;DHT22;370;48.810;9.150;2024-02-26T12:44:02;17.70;1.00
774;DHT22;370;48.810;9.150;2024-02-26T12:46:28;17.40;1.00
774;DHT22;370;48.810;9.150;2024-02-26T12:48:56;17.60;1.00
774;DHT22;370;48.810;9.150;2024-02-26T12:51:26;17.80;1.00
774;DHT22;370;48.810;9.150;2024-02-26T12:53:54;17.70;1.00
774;DHT22;370;48.810;9.150;2024-02-26T12:56:22;18.30;1.00
774;DHT22;370;48.810;9.150;2024-02-26T12:58:50;18.70;1.00
774;DHT22;370;48.810;9.150;2024-02-26T13:01:23;18.90;1.00
774;DHT22;370;48.810;9.150;2024-02-26T13:03:56;18.90;1.00
774;DHT22;370;48.810;9.150;2024-02-26T13:06:25;19.00;1.00
774;DHT22;370;48.810;9.150;2024-02-26T13:08:56;19.20;1.00
774;DHT22;370;48.810;9.150;2024-02-26T13:11:23;19.30;1.00
774;DHT22;370;48.810;9.150;2024-02-26T13:13:50;19.70;1.00
774;DHT22;370;48.810;9.150;2024-02-26T13:16:17;20.00;1.00
774;DHT22;370;48.810;9.150;2024-02-26T13:22:07;20.10;1.00
774;DHT22;370;48.810;9.150;2024-02-26T13:31:41;20.30;1.00
774;DHT22;370;48.810;9.150;2024-02-26T13:34:08;20.20;1.00
774;DHT22;370;48.810;9.150;2024-02-26T13:36:34;20.30;1.00
774;DHT22;370;48.810;9.150;2024-02-26T13:39:03;20.30;1.00
774;DHT22;370;48.810;9.150;2024-02-26T13:41:30;20.40;1.00
774;DHT22;370;48.810;9.150;2024-02-26T13:43:57;20.30;1.00
774;DHT22;370;48.810;9.150;2024-02-26T13:46:24;20.40;1.00
774;DHT22;370;48.810;9.150;2024-02-26T13:48:51;20.30;1.00
774;DHT22;370;48.810;9.150;2024-02-26T13:51:28;20.20;1.00
774;DHT22;370;48.810;9.150;2024-02-26T13:54:00;20.10;1.00
774;DHT22;370;48.810;9.150;2024-02-26T13:56:54;20.30;1.00
774;DHT22;370;48.810;9.150;2024-02-26T13:59:21;19.70;1.00
774;DHT22;370;48.810;9.150;2024-02-26T14:01:53;19.60;1.00
774;DHT22;370;48.810;9.150;2024-02-26T14:04:20;19.70;1.00
774;DHT22;370;48.810;9.150;2024-02-26T14:06:47;19.90;1.00
774;DHT22;370;48.810;9.150;2024-02-26T14:09:14;20.00;1.00
774;DHT22;370;48.810;9.150;2024-02-26T14:11:44;20.00;1.00
774;DHT22;370;48.810;9.150;2024-02-26T14:14:13;19.90;1.00
774;DHT22;370;48.810;9.150;2024-02-26T14:16:40;19.80;1.00
774;DHT22;370;48.810;9.150;2024-02-26T14:19:07;19.60;1.00
774;DHT22;370;48.810;9.150;2024-02-26T14:21:35;19.50;1.00
774;DHT22;370;48.810;9.150;2024-02-26T14:24:02;19.30;1.00
774;DHT22;370;48.810;9.150;2024-02-26T14:26:29;19.30;1.00
774;DHT22;370;48.810;9.150;2024-02-26T14:28:56;19.20;1.00
774;DHT22;370;48.810;9.150;2024-02-26T14:31:24;19.10;1.00
774;DHT22;370;48.810;9.150;2024-02-26T14:33:51;19.10;1.00
774;DHT22;370;48.810;9.150;2024-02-26T14:36:19;19.20;1.00
774;DHT22;370;48.810;9.150;2024-02-26T14:38:51;19.50;1.00
774;DHT22;370;48.810;9.150;2024-02-26T14:41:18;19.30;1.00
774;DHT22;370;48.810;9.150;2024-02-26T14:43:45;19.20;1.00
774;DHT22;370;48.810;9.150;2024-02-26T14:46:12;19.00;1.00
774;DHT22;370;48.810;9.150;2024-02-26T14:48:40;18.80;1.00
774;DHT22;370;48.810;9.150;2024-02-26T14:51:07;18.40;1.00
774;DHT22;370;48.810;9.150;2024-02-26T14:53:34;18.10;1.00
774;DHT22;370;48.810;9.150;2024-02-26T14:56:00;17.90;1.00
774;DHT22;370;48.810;9.150;2024-02-26T14:58:27;17.70;1.00
774;DHT22;370;48.810;9.150;2024-02-26T15:00:54;17.70;1.00
774;DHT22;370;48.810;9.150;2024-02-26T15:03:21;17.60;1.00
774;DHT22;370;48.810;9.150;2024-02-26T15:05:49;17.60;1.00
774;DHT22;370;48.810;9.150;2024-02-26T15:08:15;17.50;1.00
774;DHT22;370;48.810;9.150;2024-02-26T15:10:42;17.30;1.00
774;DHT22;370;48.810;9.150;2024-02-26T15:13:13;17.10;1.00
774;DHT22;370;48.810;9.150;2024-02-26T15:15:40;16.80;1.00
774;DHT22;370;48.810;9.150;2024-02-26T15:18:07;16.70;1.00
774;DHT22;370;48.810;9.150;2024-02-26T15:20:36;16.40;1.00
774;DHT22;370;48.810;9.150;2024-02-26T15:23:05;16.20;1.00
774;DHT22;370;48.810;9.150;2024-02-26T15:25:31;16.10;1.00
774;DHT22;370;48.810;9.150;2024-02-26T15:27:58;16.20;1.00
774;DHT22;370;48.810;9.150;2024-02-26T15:30:25;16.30;1.00
774;DHT22;370;48.810;9.150;2024-02-26T15:32:53;16.20;1.00
774;DHT22;370;48.810;9.150;2024-02-26T15:35:20;16.10;1.00
774;DHT22;370;48.810;9.150;2024-02-26T15:37:47;15.90;1.00
774;DHT22;370;48.810;9.150;2024-02-26T15:40:15;15.90;1.00
774;DHT22;370;48.810;9.150;2024-02-26T15:42:42;15.90;1.00
774;DHT22;370;48.810;9.150;2024-02-26T15:45:09;15.70;1.00
774;DHT22;370;48.810;9.150;2024-02-26T15:47:36;15.60;1.00
774;DHT22;370;48.810;9.150;2024-02-26T15:50:04;15.60;1.00
774;DHT22;370;48.810;9.150;2024-02-26T15:52:31;15.40;1.00
774;DHT22;370;48.810;9.150;2024-02-26T15:54:57;15.20;1.00
774;DHT22;370;48.810;9.150;2024-02-26T15:57:26;15.00;1.00
774;DHT22;370;48.810;9.150;2024-02-26T15:59:52;14.80;1.00
774;DHT22;370;48.810;9.150;2024-02-26T16:02:21;14.80;1.00
774;DHT22;370;48.810;9.150;2024-02-26T16:04:48;14.70;1.00
774;DHT22;370;48.810;9.150;2024-02-26T16:07:19;14.50;1.00
774;DHT22;370;48.810;9.150;2024-02-26T16:09:50;14.50;1.00
774;DHT22;370;48.810;9.150;2024-02-26T16:12:27;14.40;1.00
774;DHT22;370;48.810;9.150;2024-02-26T16:14:57;14.20;1.00
774;DHT22;370;48.810;9.150;2024-02-26T16:17:28;14.20;1.00
774;DHT22;370;48.810;9.150;2024-02-26T16:20:00;14.10;1.00
774;DHT22;370;48.810;9.150;2024-02-26T16:22:29;14.00;1.00
774;DHT22;370;48.810;9.150;2024-02-26T16:24:57;13.90;1.00
774;DHT22;370;48.810;9.150;2024-02-26T16:27:24;13.90;1.00
774;DHT22;370;48.810;9.150;2024-02-26T16:29:51;13.90;1.00
774;DHT22;370;48.810;9.150;2024-02-26T16:32:19;13.80;1.00
774;DHT22;370;48.810;9.150;2024-02-26T16:34:47;13.70;1.00
774;DHT22;370;48.810;9.150;2024-02-26T16:37:14;13.60;1.00
774;DHT22;370;48.810;9.150;2024-02-26T16:39:43;13.60;1.00
774;DHT22;370;48.810;9.150;2024-02-26T16:42:10;13.50;1.00
774;DHT22;370;48.810;9.150;2024-02-26T16:44:38;13.40;1.00
774;DHT22;370;48.810;9.150;2024-02-26T16:47:05;13.30;1.00
774;DHT22;370;48.810;9.150;2024-02-26T16:49:34;13.20;1.00
774;DHT22;370;48.810;9.150;2024-02-26T16:52:01;13.10;1.00
774;DHT22;370;48.810;9.150;2024-02-26T16:54:28;13.00;1.00
774;DHT22;370;48.810;9.150;2024-02-26T16:56:54;13.00;1.00
774;DHT22;370;48.810;9.150;2024-02-26T16:59:21;13.00;1.00
774;DHT22;370;48.810;9.150;2024-02-26T17:01:53;12.90;1.00
774;DHT22;370;48.810;9.150;2024-02-26T17:04:20;12.80;1.00
774;DHT22;370;48.810;9.150;2024-02-26T17:06:48;12.80;1.00
774;DHT22;370;48.810;9.150;2024-02-26T17:09:18;12.70;1.00
774;DHT22;370;48.810;9.150;2024-02-26T17:11:45;12.70;1.00
774;DHT22;370;48.810;9.150;2024-02-26T17:14:12;12.60;1.00
774;DHT22;370;48.810;9.150;2024-02-26T17:16:40;12.60;1.00
774;DHT22;370;48.810;9.150;2024-02-26T17:19:07;12.50;1.00
774;DHT22;370;48.810;9.150;2024-02-26T17:21:34;12.50;1.00